createdAt,value
2019-02-10T00:01:46.431Z,12.30
2019-02-10T00:04:15.793Z,12.30
2019-02-10T00:06:51.237Z,12.30
2019-02-10T00:09:20.748Z,12.30
2019-02-10T00:11:50.920Z,12.30
2019-02-10T00:14:20.409Z,12.30
2019-02-10T00:16:50.418Z,12.30
2019-02-10T00:19:19.636Z,12.30
2019-02-10T00:21:49.077Z,12.30
2019-02-10T00:24:18.477Z,12.30
2019-02-10T00:26:48.140Z,12.30
2019-02-10T00:29:17.521Z,12.30
2019-02-10T00:31:46.696Z,12.30
2019-02-10T00:34:16.203Z,12.30
2019-02-10T00:36:45.599Z,12.30
2019-02-10T00:39:14.997Z,12.30
2019-02-10T00:41:45.323Z,12.30
2019-02-10T00:44:14.914Z,12.30
2019-02-10T00:46:44.292Z,12.30
2019-02-10T00:49:13.612Z,12.30
2019-02-10T00:51:42.711Z,12.20
2019-02-10T00:54:11.921Z,12.20
2019-02-10T00:56:41.167Z,12.20
2019-02-10T00:59:10.644Z,12.20
2019-02-10T01:01:39.677Z,12.20
2019-02-10T01:04:09.118Z,12.20
2019-02-10T01:06:41.435Z,12.20
2019-02-10T01:09:08.986Z,12.20
2019-02-10T01:11:39.751Z,12.20
2019-02-10T01:14:08.794Z,12.20
2019-02-10T01:16:37.821Z,12.20
2019-02-10T01:19:11.465Z,12.20
2019-02-10T01:21:42.157Z,12.20
2019-02-10T01:24:11.323Z,12.20
2019-02-10T01:26:40.986Z,12.20
2019-02-10T01:29:10.324Z,12.10
2019-02-10T01:31:39.507Z,12.10
2019-02-10T01:34:10.152Z,12.00
2019-02-10T01:36:39.271Z,12.00
2019-02-10T01:39:16.285Z,12.00
2019-02-10T01:41:45.689Z,11.90
2019-02-10T01:44:14.746Z,11.90
2019-02-10T01:46:43.819Z,11.90
2019-02-10T01:49:12.897Z,11.90
2019-02-10T01:51:42.068Z,11.90
2019-02-10T01:54:11.683Z,11.80
2019-02-10T01:56:40.722Z,11.80
2019-02-10T01:59:09.784Z,11.80
2019-02-10T02:01:38.834Z,11.80
2019-02-10T02:04:08.168Z,11.80
2019-02-10T02:06:37.236Z,11.90
2019-02-10T02:09:08.931Z,11.90
2019-02-10T02:11:37.966Z,11.90
2019-02-10T02:14:07.109Z,11.90
2019-02-10T02:16:36.580Z,11.90
2019-02-10T02:19:05.954Z,11.90
2019-02-10T02:21:35.002Z,11.90
2019-02-10T02:24:04.057Z,11.90
2019-02-10T02:26:33.471Z,12.00
2019-02-10T02:29:02.554Z,12.00
2019-02-10T02:31:31.916Z,12.00
2019-02-10T02:34:00.873Z,12.00
2019-02-10T02:36:29.919Z,12.00
2019-02-10T02:38:59.030Z,12.00
2019-02-10T02:41:28.029Z,12.00
2019-02-10T02:43:57.266Z,12.00
2019-02-10T02:46:26.867Z,12.00
2019-02-10T02:48:56.026Z,11.90
2019-02-10T02:51:25.247Z,11.90
2019-02-10T02:53:54.584Z,11.80
2019-02-10T02:56:23.634Z,11.70
2019-02-10T02:58:52.586Z,11.60
2019-02-10T03:01:21.664Z,11.50
2019-02-10T03:03:50.682Z,11.40
2019-02-10T03:06:20.408Z,11.40
2019-02-10T03:08:49.355Z,11.30
2019-02-10T03:11:19.092Z,11.20
2019-02-10T03:13:48.064Z,11.20
2019-02-10T03:16:17.457Z,11.20
2019-02-10T03:18:53.042Z,11.20
2019-02-10T03:21:17.663Z,11.20
2019-02-10T03:23:46.654Z,11.10
2019-02-10T03:26:15.855Z,11.10
2019-02-10T03:28:44.808Z,11.10
2019-02-10T03:31:13.707Z,11.00
2019-02-10T03:33:42.614Z,11.00
2019-02-10T03:36:11.581Z,11.00
2019-02-10T03:38:40.486Z,11.00
2019-02-10T03:41:09.554Z,10.90
2019-02-10T03:43:38.595Z,10.90
2019-02-10T03:46:07.818Z,10.90
2019-02-10T03:48:36.879Z,10.80
2019-02-10T03:51:05.925Z,10.90
2019-02-10T03:53:34.978Z,10.80
2019-02-10T03:56:04.061Z,10.80
2019-02-10T03:58:33.162Z,10.80
2019-02-10T04:01:02.221Z,10.80
2019-02-10T04:03:31.324Z,10.90
2019-02-10T04:06:00.980Z,10.80
2019-02-10T04:08:29.869Z,10.90
2019-02-10T04:10:58.825Z,10.80
2019-02-10T04:13:27.755Z,10.90
2019-02-10T04:15:56.767Z,10.90
2019-02-10T04:18:25.710Z,10.90
2019-02-10T04:20:55.192Z,10.90
2019-02-10T04:23:24.166Z,10.90
2019-02-10T04:25:53.801Z,10.90
2019-02-10T04:28:23.126Z,10.90
2019-02-10T04:30:52.703Z,10.90
2019-02-10T04:33:21.684Z,10.90
2019-02-10T04:35:51.411Z,10.90
2019-02-10T04:38:20.406Z,10.90
2019-02-10T04:40:49.443Z,11.00
2019-02-10T04:43:18.399Z,11.00
2019-02-10T04:45:47.736Z,11.00
2019-02-10T04:48:16.694Z,11.00
2019-02-10T04:50:45.677Z,11.00
2019-02-10T04:53:14.963Z,11.10
2019-02-10T04:55:44.011Z,11.10
2019-02-10T04:58:12.997Z,11.10
2019-02-10T05:00:42.154Z,11.10
2019-02-10T05:03:11.355Z,11.10
2019-02-10T05:05:40.665Z,11.20
2019-02-10T05:08:09.555Z,11.20
2019-02-10T05:10:38.873Z,11.20
2019-02-10T05:13:07.899Z,11.30
2019-02-10T05:15:37.186Z,11.30
2019-02-10T05:18:06.561Z,11.30
2019-02-10T05:20:35.605Z,11.40
2019-02-10T05:23:04.942Z,11.40
2019-02-10T05:25:34.281Z,11.40
2019-02-10T05:28:03.956Z,11.50
2019-02-10T05:30:32.986Z,11.50
2019-02-10T05:33:01.914Z,11.50
2019-02-10T05:35:30.818Z,11.60
2019-02-10T05:38:04.275Z,11.60
2019-02-10T05:40:30.863Z,11.60
2019-02-10T05:42:59.842Z,11.60
2019-02-10T05:45:29.657Z,11.60
2019-02-10T05:47:58.967Z,11.70
2019-02-10T05:50:28.342Z,11.70
2019-02-10T05:52:57.406Z,11.80
2019-02-10T05:55:27.081Z,11.80
2019-02-10T05:57:56.187Z,11.80
2019-02-10T06:00:25.803Z,11.80
2019-02-10T06:02:55.071Z,11.90
2019-02-10T06:05:26.654Z,11.90
2019-02-10T06:07:56.131Z,11.90
2019-02-10T06:10:25.173Z,11.90
2019-02-10T06:12:54.549Z,12.00
2019-02-10T06:15:23.532Z,12.00
2019-02-10T06:17:53.038Z,12.00
2019-02-10T06:20:22.320Z,12.00
2019-02-10T06:22:51.310Z,12.00
2019-02-10T06:25:20.230Z,12.00
2019-02-10T06:27:49.209Z,12.00
2019-02-10T06:30:18.604Z,12.00
2019-02-10T06:32:47.785Z,12.00
2019-02-10T06:35:17.000Z,12.00
2019-02-10T06:37:46.473Z,12.00
2019-02-10T06:40:15.413Z,12.00
2019-02-10T06:42:44.919Z,12.00
2019-02-10T06:45:14.140Z,12.00
2019-02-10T06:47:43.676Z,12.10
2019-02-10T06:50:12.748Z,12.10
2019-02-10T06:52:41.784Z,12.10
2019-02-10T06:55:12.804Z,12.10
2019-02-10T06:57:42.162Z,12.10
2019-02-10T07:00:47.032Z,12.20
2019-02-10T07:03:48.388Z,12.20
2019-02-10T07:06:18.243Z,12.20
2019-02-10T07:08:47.641Z,12.20
2019-02-10T07:11:16.567Z,12.30
2019-02-10T07:13:48.441Z,12.30
2019-02-10T07:16:55.069Z,12.30
2019-02-10T07:20:07.363Z,12.40
2019-02-10T07:23:20.490Z,12.40
2019-02-10T07:25:57.065Z,12.40
2019-02-10T07:28:59.074Z,12.50
2019-02-10T07:31:34.634Z,12.50
2019-02-10T07:34:59.048Z,12.60
2019-02-10T07:37:57.325Z,12.70
2019-02-10T07:41:16.715Z,12.70
2019-02-10T07:44:27.199Z,12.70
2019-02-10T07:47:24.305Z,12.70
2019-02-10T07:50:16.901Z,12.80
2019-02-10T07:53:01.570Z,12.90
2019-02-10T07:55:59.195Z,12.90
2019-02-10T07:59:01.294Z,13.00
2019-02-10T08:02:12.102Z,13.00
2019-02-10T08:05:32.047Z,13.10
2019-02-10T08:08:34.694Z,13.20
2019-02-10T08:11:41.782Z,13.20
2019-02-10T08:14:49.964Z,13.20
2019-02-10T08:17:45.571Z,13.20
2019-02-10T08:20:55.361Z,13.20
2019-02-10T08:24:04.223Z,13.20
2019-02-10T08:27:01.745Z,13.30
2019-02-10T08:29:49.949Z,13.40
2019-02-10T08:32:35.432Z,13.40
2019-02-10T08:35:40.263Z,13.60
2019-02-10T08:38:38.218Z,13.60
2019-02-10T08:41:51.774Z,13.70
2019-02-10T08:44:51.311Z,13.80
2019-02-10T08:47:47.604Z,13.80
2019-02-10T08:51:03.630Z,13.80
2019-02-10T08:53:43.952Z,13.80
2019-02-10T08:56:14.240Z,13.70
2019-02-10T08:58:43.509Z,13.70
2019-02-10T09:01:13.308Z,13.70
2019-02-10T09:03:42.567Z,13.70
2019-02-10T09:06:11.640Z,13.70
2019-02-10T09:08:41.680Z,13.70
2019-02-10T09:11:10.708Z,13.70
2019-02-10T09:13:39.728Z,13.60
2019-02-10T09:16:09.111Z,13.60
2019-02-10T09:18:39.145Z,13.60
2019-02-10T09:21:08.710Z,13.50
2019-02-10T09:23:38.124Z,13.50
2019-02-10T09:26:07.338Z,13.50
2019-02-10T09:28:36.948Z,13.50
2019-02-10T09:31:06.399Z,13.50
2019-02-10T09:33:35.533Z,13.40
2019-02-10T09:36:04.511Z,13.50
2019-02-10T09:38:33.629Z,13.50
2019-02-10T09:41:02.569Z,13.50
2019-02-10T09:43:32.155Z,13.50
2019-02-10T09:46:01.746Z,13.50
2019-02-10T09:48:30.751Z,13.50
2019-02-10T09:51:00.091Z,13.50
2019-02-10T09:53:29.062Z,13.50
2019-02-10T09:55:58.730Z,13.50
2019-02-10T09:58:27.786Z,13.40
2019-02-10T10:00:57.011Z,13.50
2019-02-10T10:03:26.155Z,13.40
2019-02-10T10:05:55.229Z,13.40
2019-02-10T10:08:24.230Z,13.50
2019-02-10T10:10:53.272Z,13.50
2019-02-10T10:13:22.303Z,13.70
2019-02-10T10:15:51.964Z,13.80
2019-02-10T10:18:20.919Z,14.00
2019-02-10T10:20:49.885Z,14.20
2019-02-10T10:23:19.590Z,14.30
2019-02-10T10:25:49.170Z,14.40
2019-02-10T10:28:18.173Z,14.50
2019-02-10T10:30:50.320Z,14.50
2019-02-10T10:33:19.424Z,14.60
2019-02-10T10:35:49.864Z,14.60
2019-02-10T10:38:18.883Z,14.70
2019-02-10T10:40:48.045Z,14.80
2019-02-10T10:43:17.519Z,14.90
2019-02-10T10:45:46.485Z,15.00
2019-02-10T10:48:15.455Z,15.00
2019-02-10T10:50:44.528Z,15.00
2019-02-10T10:53:13.578Z,14.80
2019-02-10T10:55:42.689Z,14.70
2019-02-10T10:58:12.156Z,14.70
2019-02-10T11:00:41.163Z,14.60
2019-02-10T11:03:12.044Z,14.70
2019-02-10T11:05:41.039Z,14.70
2019-02-10T11:08:10.155Z,14.70
2019-02-10T11:10:41.932Z,14.60
2019-02-10T11:13:10.952Z,14.70
2019-02-10T11:15:40.644Z,14.60
2019-02-10T11:18:09.530Z,14.50
2019-02-10T11:20:39.351Z,14.40
2019-02-10T11:23:08.423Z,14.30
2019-02-10T11:25:37.562Z,14.20
2019-02-10T11:28:06.660Z,14.10
2019-02-10T11:30:35.905Z,14.10
2019-02-10T11:33:05.060Z,14.10
2019-02-10T11:35:34.125Z,14.10
2019-02-10T11:38:03.131Z,14.00
2019-02-10T11:40:32.472Z,13.90
2019-02-10T11:43:01.481Z,13.80
2019-02-10T11:45:30.847Z,13.60
2019-02-10T11:47:59.950Z,13.60
2019-02-10T11:50:29.842Z,13.60
2019-02-10T11:52:58.868Z,13.60
2019-02-10T11:55:28.257Z,13.50
2019-02-10T11:57:57.573Z,13.50
2019-02-10T12:00:26.677Z,13.50
2019-02-10T12:02:55.798Z,13.50
2019-02-10T12:05:24.952Z,13.60
2019-02-10T12:07:54.182Z,13.60
2019-02-10T12:10:23.205Z,13.60
2019-02-10T12:12:52.258Z,13.60
2019-02-10T12:15:21.701Z,13.60
2019-02-10T12:17:50.787Z,13.60
2019-02-10T12:20:20.317Z,13.60
2019-02-10T12:22:50.474Z,13.50
2019-02-10T12:25:19.804Z,13.50
2019-02-10T12:27:49.828Z,13.50
2019-02-10T12:30:20.103Z,13.40
2019-02-10T12:32:49.327Z,13.40
2019-02-10T12:35:19.411Z,13.20
2019-02-10T12:37:48.576Z,13.10
2019-02-10T12:40:18.055Z,13.00
2019-02-10T12:42:47.602Z,12.90
2019-02-10T12:45:16.986Z,12.80
2019-02-10T12:47:46.567Z,12.70
2019-02-10T12:50:15.712Z,12.60
2019-02-10T12:52:45.596Z,12.60
2019-02-10T12:55:15.330Z,12.60
2019-02-10T12:57:44.474Z,12.60
2019-02-10T13:00:15.140Z,12.60
2019-02-10T13:02:44.490Z,12.50
2019-02-10T13:05:13.732Z,12.60
2019-02-10T13:07:43.155Z,12.70
2019-02-10T13:10:13.210Z,12.80
2019-02-10T13:12:42.313Z,12.80
2019-02-10T13:15:11.758Z,12.90
2019-02-10T13:17:42.922Z,13.00
2019-02-10T13:20:12.101Z,13.30
2019-02-10T13:22:41.534Z,13.40
2019-02-10T13:25:10.771Z,13.50
2019-02-10T13:27:39.808Z,13.60
2019-02-10T13:30:11.052Z,13.50
2019-02-10T13:32:39.979Z,13.40
2019-02-10T13:35:09.048Z,13.40
2019-02-10T13:37:38.094Z,13.40
2019-02-10T13:40:16.441Z,13.40
2019-02-10T13:42:41.797Z,13.40
2019-02-10T13:45:11.350Z,13.60
2019-02-10T13:47:40.682Z,13.60
2019-02-10T13:50:11.159Z,13.70
2019-02-10T13:52:40.179Z,13.60
2019-02-10T13:55:10.306Z,13.50
2019-02-10T13:57:39.911Z,13.40
2019-02-10T14:00:12.888Z,13.40
2019-02-10T14:02:42.463Z,13.30
2019-02-10T14:05:12.012Z,13.30
2019-02-10T14:07:41.366Z,13.30
2019-02-10T14:10:11.688Z,13.30
2019-02-10T14:12:40.796Z,13.30
2019-02-10T14:15:11.858Z,13.30
2019-02-10T14:17:40.901Z,13.30
2019-02-10T14:20:12.245Z,13.20
2019-02-10T14:22:41.198Z,13.00
2019-02-10T14:25:10.294Z,12.90
2019-02-10T14:27:39.380Z,12.70
2019-02-10T14:30:09.947Z,12.60
2019-02-10T14:32:39.247Z,12.50
2019-02-10T14:35:08.863Z,12.40
2019-02-10T14:37:38.204Z,12.30
2019-02-10T14:40:07.529Z,12.10
2019-02-10T14:42:36.624Z,12.00
2019-02-10T14:45:05.876Z,11.90
2019-02-10T14:47:35.214Z,11.80
2019-02-10T14:50:05.155Z,11.80
2019-02-10T14:52:34.429Z,11.70
2019-02-10T14:55:03.579Z,11.60
2019-02-10T14:57:32.683Z,11.60
2019-02-10T15:00:02.128Z,11.40
2019-02-10T15:02:31.440Z,11.40
2019-02-10T15:05:00.486Z,11.40
2019-02-10T15:07:29.615Z,11.30
2019-02-10T15:10:00.669Z,11.30
2019-02-10T15:12:31.183Z,11.30
2019-02-10T15:15:00.507Z,11.30
2019-02-10T15:17:29.968Z,11.30
2019-02-10T15:20:01.721Z,11.40
2019-02-10T15:22:31.264Z,11.50
2019-02-10T15:25:00.678Z,11.50
2019-02-10T15:27:30.066Z,11.50
2019-02-10T15:29:59.667Z,11.50
2019-02-10T15:32:28.678Z,11.50
2019-02-10T15:34:59.110Z,11.40
2019-02-10T15:37:28.593Z,11.40
2019-02-10T15:39:57.595Z,11.40
2019-02-10T15:42:26.946Z,11.40
2019-02-10T15:44:56.186Z,11.30
2019-02-10T15:47:25.529Z,11.20
2019-02-10T15:49:55.086Z,11.20
2019-02-10T15:52:24.453Z,11.10
2019-02-10T15:54:53.971Z,11.00
2019-02-10T15:57:23.486Z,11.00
2019-02-10T15:59:52.917Z,11.20
2019-02-10T16:02:22.461Z,11.20
2019-02-10T16:04:51.401Z,11.30
2019-02-10T16:07:20.501Z,11.30
2019-02-10T16:09:49.369Z,11.20
2019-02-10T16:12:18.998Z,11.20
2019-02-10T16:14:48.041Z,11.20
2019-02-10T16:17:16.977Z,11.20
2019-02-10T16:19:47.241Z,11.30
2019-02-10T16:22:16.992Z,11.20
2019-02-10T16:24:46.562Z,11.20
2019-02-10T16:27:16.056Z,11.20
2019-02-10T16:29:45.566Z,11.20
2019-02-10T16:32:15.120Z,11.10
2019-02-10T16:34:47.607Z,11.10
2019-02-10T16:37:16.635Z,11.10
2019-02-10T16:39:45.851Z,11.10
2019-02-10T16:42:14.919Z,11.10
2019-02-10T16:44:44.427Z,11.10
2019-02-10T16:47:13.749Z,11.10
2019-02-10T16:49:43.461Z,11.00
2019-02-10T16:52:12.607Z,11.10
2019-02-10T16:54:41.786Z,11.00
2019-02-10T16:57:12.050Z,11.00
2019-02-10T16:59:41.028Z,11.00
2019-02-10T17:02:10.505Z,11.00
2019-02-10T17:04:39.763Z,11.10
2019-02-10T17:07:09.032Z,11.00
2019-02-10T17:09:38.153Z,11.00
2019-02-10T17:12:07.964Z,11.00
2019-02-10T17:14:37.006Z,11.00
2019-02-10T17:17:06.090Z,11.00
2019-02-10T17:19:35.352Z,10.90
2019-02-10T17:22:04.880Z,10.90
2019-02-10T17:24:34.663Z,10.90
2019-02-10T17:27:03.750Z,11.00
2019-02-10T17:29:32.897Z,11.00
2019-02-10T17:32:01.950Z,11.00
2019-02-10T17:34:30.929Z,11.00
2019-02-10T17:36:59.997Z,11.00
2019-02-10T17:39:28.943Z,11.00
2019-02-10T17:41:57.943Z,11.10
2019-02-10T17:44:26.902Z,11.10
2019-02-10T17:46:55.823Z,11.10
2019-02-10T17:49:25.069Z,11.10
2019-02-10T17:51:54.043Z,11.10
2019-02-10T17:54:23.303Z,11.00
2019-02-10T17:56:52.427Z,11.00
2019-02-10T17:59:21.888Z,10.90
2019-02-10T18:01:51.709Z,10.90
2019-02-10T18:04:20.599Z,10.90
2019-02-10T18:06:50.065Z,10.90
2019-02-10T18:09:19.030Z,10.80
2019-02-10T18:11:48.021Z,10.80
2019-02-10T18:14:32.924Z,10.70
2019-02-10T18:17:09.397Z,10.70
2019-02-10T18:19:46.610Z,10.60
2019-02-10T18:22:28.368Z,10.60
2019-02-10T18:25:15.100Z,10.50
2019-02-10T18:28:04.688Z,10.50
2019-02-10T18:30:58.827Z,10.40
2019-02-10T18:34:05.106Z,10.40
2019-02-10T18:37:05.188Z,10.30
2019-02-10T18:39:56.240Z,10.20
2019-02-10T18:42:47.209Z,10.00
2019-02-10T18:45:35.567Z,9.90
2019-02-10T18:48:14.218Z,10.00
2019-02-10T18:50:50.441Z,10.00
2019-02-10T18:53:39.813Z,10.00
2019-02-10T18:56:24.029Z,10.00
2019-02-10T18:59:10.239Z,9.90
2019-02-10T19:01:47.198Z,9.80
2019-02-10T19:04:34.608Z,9.80
2019-02-10T19:07:32.167Z,9.70
2019-02-10T19:10:23.411Z,9.80
2019-02-10T19:13:03.072Z,9.80
2019-02-10T19:15:43.833Z,9.70
2019-02-10T19:18:21.032Z,9.70
2019-02-10T19:21:08.321Z,9.60
2019-02-10T19:23:59.832Z,9.60
2019-02-10T19:26:37.164Z,9.70
2019-02-10T19:29:36.887Z,9.70
2019-02-10T19:32:24.369Z,9.60
2019-02-10T19:35:11.306Z,9.50
2019-02-10T19:37:55.491Z,9.50
2019-02-10T19:40:42.656Z,9.60
2019-02-10T19:43:31.202Z,9.40
2019-02-10T19:46:18.015Z,9.40
2019-02-10T19:49:05.393Z,9.20
2019-02-10T19:51:56.644Z,9.20
2019-02-10T19:54:31.712Z,9.10
2019-02-10T19:57:24.157Z,8.90
2019-02-10T20:00:08.260Z,8.80
2019-02-10T20:02:54.235Z,8.70
2019-02-10T20:05:51.998Z,8.60
2019-02-10T20:08:46.613Z,8.50
2019-02-10T20:11:37.405Z,8.50
2019-02-10T20:14:18.792Z,8.50
2019-02-10T20:17:07.651Z,8.20
2019-02-10T20:19:42.382Z,8.20
2019-02-10T20:22:42.715Z,8.10
2019-02-10T20:25:29.484Z,8.10
2019-02-10T20:28:21.184Z,8.00
2019-02-10T20:31:13.233Z,7.90
2019-02-10T20:33:52.105Z,7.80
2019-02-10T20:36:27.749Z,7.70
2019-02-10T20:39:21.634Z,7.70
2019-02-10T20:42:01.238Z,7.80
2019-02-10T20:44:52.728Z,7.80
2019-02-10T20:47:47.288Z,7.80
2019-02-10T20:50:35.471Z,7.70
2019-02-10T20:53:26.336Z,7.70
2019-02-10T20:56:02.427Z,7.70
2019-02-10T20:58:49.634Z,7.80
2019-02-10T21:01:50.228Z,7.70
2019-02-10T21:04:41.674Z,7.60
2019-02-10T21:07:29.947Z,7.60
2019-02-10T21:10:12.587Z,7.60
2019-02-10T21:13:00.653Z,7.70
2019-02-10T21:15:49.406Z,7.50
2019-02-10T21:18:43.760Z,7.50
2019-02-10T21:21:45.371Z,7.50
2019-02-10T21:24:52.064Z,7.50
2019-02-10T21:27:44.828Z,7.40
2019-02-10T21:30:45.740Z,7.30
2019-02-10T21:33:34.051Z,7.20
2019-02-10T21:36:25.169Z,7.20
2019-02-10T21:39:13.907Z,7.20
2019-02-10T21:41:54.715Z,7.10
2019-02-10T21:44:35.961Z,7.10
2019-02-10T21:47:23.421Z,7.00
2019-02-10T21:49:52.627Z,7.10
2019-02-10T21:52:21.838Z,7.00
2019-02-10T21:54:51.320Z,7.00
2019-02-10T21:57:20.607Z,7.00
2019-02-10T21:59:49.722Z,7.10
2019-02-10T22:02:19.259Z,7.10
2019-02-10T22:04:48.491Z,7.10
2019-02-10T22:07:18.246Z,7.00
2019-02-10T22:09:48.134Z,7.00
2019-02-10T22:12:17.761Z,7.00
2019-02-10T22:14:46.865Z,7.00
2019-02-10T22:17:15.972Z,7.10
2019-02-10T22:19:45.844Z,7.10
2019-02-10T22:22:14.992Z,7.10
2019-02-10T22:24:44.119Z,7.10
2019-02-10T22:27:13.448Z,7.10
2019-02-10T22:29:42.963Z,7.00
2019-02-10T22:32:12.449Z,7.10
2019-02-10T22:34:41.823Z,7.10
2019-02-10T22:37:12.029Z,7.10
2019-02-10T22:39:42.095Z,7.10
2019-02-10T22:42:11.243Z,7.10
2019-02-10T22:44:40.274Z,7.00
2019-02-10T22:47:09.336Z,7.00
2019-02-10T22:49:38.412Z,7.00
2019-02-10T22:52:07.848Z,7.00
2019-02-10T22:54:37.124Z,7.00
2019-02-10T22:57:06.783Z,7.00
2019-02-10T22:59:36.851Z,7.00
2019-02-10T23:02:06.899Z,7.00
2019-02-10T23:04:36.173Z,7.10
2019-02-10T23:07:05.932Z,7.10
2019-02-10T23:09:35.638Z,7.10
2019-02-10T23:12:04.673Z,7.10
2019-02-10T23:14:33.821Z,7.20
2019-02-10T23:17:02.935Z,7.10
2019-02-10T23:19:32.419Z,7.10
2019-02-10T23:22:01.450Z,7.10
2019-02-10T23:24:30.995Z,7.10
2019-02-10T23:27:00.044Z,7.10
2019-02-10T23:29:29.146Z,7.10
2019-02-10T23:31:58.920Z,7.10
2019-02-10T23:34:27.956Z,7.10
2019-02-10T23:36:56.915Z,7.20
2019-02-10T23:39:26.659Z,7.30
2019-02-10T23:41:55.731Z,7.30
2019-02-10T23:44:25.093Z,7.30
2019-02-10T23:46:54.686Z,7.30
2019-02-10T23:49:23.680Z,7.20
2019-02-10T23:51:52.984Z,7.30
2019-02-10T23:54:22.069Z,7.30
2019-02-10T23:56:51.439Z,7.30
2019-02-10T23:59:20.758Z,7.30
